New Milford, New Jersey
Current Conditions -  °F | °C
As of 6:51 PM on Sunday 25 Jan 2015 (Local Time) from KTEB Reporting Station
Clear Clear  
Wind Chill: 34°   Ceiling: Unl
Heat Index: 34°   Visibility: 10mi
Dew Point:   Wind: 3mph
Humidity: 34%   Direction: 340°NNW
Pressure: 29.92"   Gusts: NA
Location:  40.92°N, 74.03°W
Report Text: KTEB 252351Z 34003KT 10SM CLR 01/M13 A2992 RMK AO2 SLP130 T00111133 10050 20006 53038 $
Loading
Personal Weather Stations






























Interactive Weather Map New forecast layout! Learn more

10-Day Weather Forecast

Advertisements
Track Severe Weather on mobile